UKR121 FXMM-FAGG
Flight info
| Callsign | UKR121 |
|---|---|
| Flight time | N/A |
| Altitude | 30000 |
| Route | EGTAP UQ8 XABDO UZ3 ESVAX UQ9 XALIN |
| Aircraft | IL76/H-SDFGHIM1RTUWXY/LB1 |
Departure
| Time | N/A |
|---|---|
| Airport | Moshoeshoe I International Airport (FXMM) |
Arrival
| Time | 2026-04-29 19:45 |
|---|---|
| Airport | George Airport (FAGG) |
| Time | Latitude | Longitude | Altitude | Speed | Heading |
|---|---|---|---|---|---|
| 2026-04-29 19:20 | -32.39462 | 24.11776 | 29950 ft | 401 kts | 257° |
| 2026-04-29 19:21 | -32.41545 | 24.05663 | 29936 ft | 401 kts | 257° |
| 2026-04-29 19:21 | -32.44059 | 23.99699 | 29908 ft | 427 kts | 237° |
| 2026-04-29 19:21 | -32.46441 | 23.97475 | 29981 ft | 443 kts | 226° |
| 2026-04-29 19:22 | -32.48914 | 23.95351 | 29939 ft | 444 kts | 227° |
| 2026-04-29 19:22 | -32.53926 | 23.91049 | 29926 ft | 444 kts | 227° |
| 2026-04-29 19:23 | -32.58917 | 23.86719 | 29931 ft | 444 kts | 228° |
| 2026-04-29 19:23 | -32.63907 | 23.82376 | 29927 ft | 443 kts | 228° |
| 2026-04-29 19:24 | -32.68873 | 23.78045 | 29927 ft | 443 kts | 227° |
| 2026-04-29 19:24 | -32.73842 | 23.73702 | 29921 ft | 444 kts | 228° |
| 2026-04-29 19:25 | -32.78812 | 23.69354 | 29922 ft | 445 kts | 228° |
| 2026-04-29 19:25 | -32.83786 | 23.64993 | 29925 ft | 442 kts | 228° |
| 2026-04-29 19:26 | -32.88745 | 23.60644 | 29930 ft | 443 kts | 228° |
| 2026-04-29 19:26 | -32.93710 | 23.56284 | 29922 ft | 443 kts | 228° |
| 2026-04-29 19:27 | -32.98675 | 23.51911 | 29927 ft | 443 kts | 228° |
| 2026-04-29 19:27 | -33.03608 | 23.47559 | 29918 ft | 442 kts | 228° |
| 2026-04-29 19:28 | -33.08596 | 23.43164 | 29922 ft | 444 kts | 228° |
| 2026-04-29 19:28 | -33.13554 | 23.38780 | 29905 ft | 442 kts | 228° |
| 2026-04-29 19:29 | -33.18477 | 23.34421 | 29903 ft | 440 kts | 228° |
| 2026-04-29 19:29 | -33.23418 | 23.30045 | 29923 ft | 442 kts | 229° |
| 2026-04-29 19:30 | -33.28337 | 23.25671 | 29924 ft | 441 kts | 229° |
| 2026-04-29 19:30 | -33.33277 | 23.21288 | 29918 ft | 442 kts | 229° |
| 2026-04-29 19:31 | -33.38248 | 23.16849 | 29446 ft | 453 kts | 228° |
| 2026-04-29 19:31 | -33.40770 | 23.14607 | 29050 ft | 444 kts | 228° |
| 2026-04-29 19:31 | -33.43182 | 23.12471 | 28539 ft | 428 kts | 228° |
| 2026-04-29 19:31 | -33.45540 | 23.10368 | 28036 ft | 415 kts | 228° |
| 2026-04-29 19:32 | -33.47810 | 23.08341 | 27537 ft | 405 kts | 229° |
| 2026-04-29 19:32 | -33.50052 | 23.06340 | 27024 ft | 395 kts | 229° |
| 2026-04-29 19:32 | -33.52215 | 23.04408 | 26474 ft | 387 kts | 229° |
| 2026-04-29 19:32 | -33.54378 | 23.02464 | 25706 ft | 384 kts | 228° |
| 2026-04-29 19:33 | -33.56505 | 23.00559 | 24951 ft | 383 kts | 228° |
| 2026-04-29 19:33 | -33.58630 | 22.98648 | 24201 ft | 380 kts | 227° |
| 2026-04-29 19:33 | -33.60666 | 22.96833 | 21985 ft | 383 kts | 227° |
| 2026-04-29 19:33 | -33.62653 | 22.95011 | 20913 ft | 344 kts | 225° |
| 2026-04-29 19:34 | -33.64490 | 22.93391 | 20026 ft | 314 kts | 225° |
| 2026-04-29 19:34 | -33.66163 | 22.91888 | 19155 ft | 295 kts | 224° |
| 2026-04-29 19:34 | -33.67749 | 22.90457 | 18293 ft | 281 kts | 224° |
| 2026-04-29 19:34 | -33.69268 | 22.89093 | 17429 ft | 271 kts | 223° |
| 2026-04-29 19:35 | -33.70747 | 22.87759 | 16574 ft | 265 kts | 223° |
| 2026-04-29 19:35 | -33.72137 | 22.86390 | 15709 ft | 256 kts | 236° |
| 2026-04-29 19:35 | -33.73108 | 22.84667 | 14876 ft | 249 kts | 238° |
| 2026-04-29 19:35 | -33.74101 | 22.83005 | 14030 ft | 248 kts | 239° |
| 2026-04-29 19:36 | -33.75077 | 22.81318 | 13190 ft | 249 kts | 237° |
| 2026-04-29 19:36 | -33.76075 | 22.79620 | 12330 ft | 248 kts | 238° |
| 2026-04-29 19:36 | -33.77057 | 22.77944 | 11477 ft | 248 kts | 238° |
| 2026-04-29 19:36 | -33.78048 | 22.76253 | 10627 ft | 249 kts | 238° |
| 2026-04-29 19:37 | -33.79036 | 22.74572 | 9766 ft | 249 kts | 238° |
| 2026-04-29 19:37 | -33.79696 | 22.73441 | 9197 ft | 249 kts | 238° |
| 2026-04-29 19:37 | -33.81012 | 22.71190 | 8049 ft | 248 kts | 238° |
| 2026-04-29 19:37 | -33.81997 | 22.69517 | 7199 ft | 248 kts | 238° |
| 2026-04-29 19:38 | -33.82963 | 22.67857 | 6487 ft | 241 kts | 238° |
| 2026-04-29 19:38 | -33.83902 | 22.66419 | 6648 ft | 201 kts | 223° |
| 2026-04-29 19:38 | -33.85221 | 22.65642 | 5796 ft | 249 kts | 188° |
| 2026-04-29 19:38 | -33.87031 | 22.65983 | 5495 ft | 273 kts | 147° |
| 2026-04-29 19:39 | -33.88583 | 22.67150 | 5805 ft | 271 kts | 149° |
| 2026-04-29 19:39 | -33.90295 | 22.68345 | 5652 ft | 285 kts | 149° |
| 2026-04-29 19:39 | -33.92034 | 22.69524 | 5615 ft | 290 kts | 157° |
| 2026-04-29 19:39 | -33.94024 | 22.69778 | 5662 ft | 292 kts | 195° |
| 2026-04-29 19:40 | -33.95807 | 22.68666 | 5656 ft | 291 kts | 226° |
| 2026-04-29 19:40 | -33.97168 | 22.66867 | 5621 ft | 292 kts | 230° |
| 2026-04-29 19:40 | -33.98335 | 22.64867 | 5634 ft | 289 kts | 241° |
| 2026-04-29 19:40 | -33.98970 | 22.63594 | 5607 ft | 290 kts | 240° |
| 2026-04-29 19:41 | -33.99512 | 22.62528 | 5617 ft | 289 kts | 241° |
| 2026-04-29 19:41 | -34.00544 | 22.60448 | 5591 ft | 289 kts | 242° |
| 2026-04-29 19:41 | -34.01176 | 22.58154 | 4742 ft | 312 kts | 268° |
| 2026-04-29 19:41 | -34.00925 | 22.55502 | 2455 ft | 327 kts | 288° |
| 2026-04-29 19:42 | -34.00374 | 22.53228 | 1745 ft | 236 kts | 274° |
| 2026-04-29 19:42 | -34.00266 | 22.51987 | 1594 ft | 223 kts | 270° |
| 2026-04-29 19:42 | -34.00215 | 22.49477 | 1254 ft | 220 kts | 273° |
| 2026-04-29 19:42 | -34.00172 | 22.47799 | 1309 ft | 187 kts | 262° |
| 2026-04-29 19:43 | -34.00282 | 22.46415 | 1344 ft | 172 kts | 264° |
| 2026-04-29 19:43 | -34.00314 | 22.44980 | 1357 ft | 165 kts | 266° |
| 2026-04-29 19:43 | -34.00349 | 22.43605 | 1418 ft | 160 kts | 266° |
| 2026-04-29 19:43 | -34.00422 | 22.42206 | 1242 ft | 175 kts | 261° |
| 2026-04-29 19:44 | -34.00467 | 22.40833 | 958 ft | 153 kts | 268° |
| 2026-04-29 19:44 | -34.00502 | 22.39645 | 770 ft | 135 kts | 264° |
| 2026-04-29 19:44 | -34.00537 | 22.38508 | 658 ft | 134 kts | 266° |
| 2026-04-29 19:44 | -34.00570 | 22.37534 | 634 ft | 90 kts | 268° |
| 2026-04-29 19:45 | -34.00584 | 22.37014 | 627 ft | 37 kts | 268° |
| 2026-04-29 19:45 | -34.00560 | 22.36799 | 623 ft | 18 kts | 318° |
| 2026-04-29 19:45 | -34.00468 | 22.36848 | 624 ft | 8 kts | 34° |
| 2026-04-29 19:45 | -34.00413 | 22.36906 | 625 ft | 24 kts | 50° |
| 2026-04-29 19:46 | -34.00363 | 22.37156 | 624 ft | 28 kts | 86° |
| 2026-04-29 19:46 | -34.00355 | 22.37336 | 627 ft | 14 kts | 87° |